Somerset, NJ - U.S.A.

40° 30' 13"N, 74° 29' 17"W, Elevation 55 ft.

Thursday, May 5, 2016
11:30:00 PM (Eastern)

126th day of the year

Updated and refreshed every 2 minutes. Weather computer in use: Davis Vantage PRO2 Plus


Current Weather:

Current Today's Highs and Lows
Temperature 54.0°F (12.2°C) ↓ 57.6° 5:30 PM
46.4° 5:48 AM
Dew Point 46.6°F (8.1°C) ↑ 47.5° 3:19 PM
44.2° 5:48 AM
Humidity 76% ↑ 94% 8:07 AM
66% 4:21 PM
Wind Gust NE 10 mph NNE 15 2:46 PM
NE 0 12:03 AM
Wind Speed NE 1 mph ↑
Light air (1)
ENE 9 1:29 PM
ENE 0 12:30 AM
Precipitation 0.00" (0.00 mm) 1
Last 24 hours 0.00"
Instantaneous rate 0.00"/hr
Storm total 0.00"
0.00"2 12:00 AM
0.00"2 12:00 AM
Barometer 29.655" (1004.3 mb)
Rising
29.728" 12:39 AM
29.605" 3:50 PM
Wind Chill Gust 54°F (12°C) 58° 5:30 PM
42° 6:01 AM
Wind Chill Avg 54°F (12°C) 58° 5:30 PM
43° 6:12 AM
Heat Index 54°F (12.2°C) 57° 3:11 PM
46° 5:01 AM
1. Daily total rainfall.
2. Maximum and minimum rainfall are the instantaneous rainfall rates.

'KEBR' METAR REPORT:

METAR KSOM 060330Z AUTO 06001KT 12/08 A2966 RMK AO1 SLP043 T01220081 

Yesterday's Weather and More...

Webcam
EBWeather Image

Video - Last 3 Hours

Video - Yesterday

Weather Data from East Brunswick, NJ

Data generated by WxSolution Version 1.8.8.8, Build 2016.04.03.